»·PEaware :: FDX9450 KONT-KOAK

FDX9450 :: KONT-KOAK

FLIGHT INFORMATION

Flight Status: Arrived
Operator:
Federal Express
More flights by this operator :: More flights under this callsign
Pilot: Dominic B. (18944)
Aircraft: BOEING 747-200
(B742)
More flights by this aircraft type
Origin: KONT Ontario Intl
United States
Destination: KOAK Metro Oakland Intl
United States
More flights between these airports :: More routes between these airports
Route: SNSHN5 COREZ RGOOD EMZOH3
File this flight plan on PilotEdge
Remarks: RMK / SIMBRIEF
Altitude:
(Current/Filed)
34,000ft
Speed:
(Current/Filed)
515kts
Departed: 05-Aug-22 02:39 PM
Arrived: 05-Aug-22 03:30 PM
Distance/Time
Traveled:
314nm/0:51
Distance/Time
To Go:
Arrived

Flight Plot

Page will automatically refresh every two minutes.

Flight plan parsing failed; only flown route is shown


Map Options




Map Legend


Flown Route
Filed Route
Departure Airport
Arrival Airport
Navaid (VOR, NDB)
Fix

Horizontal Profiles

Position Reports

Time Latitude Longitude Heading Altitude Ground
Speed
05-Aug-22 13:24 34.059463 -117.621456 359 952ft 0kts
05-Aug-22 13:25 34.059463 -117.621456 359 952ft 0kts
05-Aug-22 13:26 34.059463 -117.621456 359 952ft 0kts
05-Aug-22 13:27 34.059463 -117.621456 359 952ft 0kts
05-Aug-22 13:28 34.059463 -117.621456 359 952ft 0kts
05-Aug-22 13:29 34.059463 -117.621456 359 952ft 0kts
05-Aug-22 13:30 34.059463 -117.621456 359 952ft 0kts
05-Aug-22 13:31 34.059463 -117.621456 359 952ft 0kts
05-Aug-22 13:32 34.059463 -117.621456 359 952ft 0kts
05-Aug-22 13:33 34.059463 -117.621456 359 952ft 0kts
05-Aug-22 13:34 34.059463 -117.621456 359 952ft 0kts
05-Aug-22 13:35 34.059463 -117.621456 359 952ft 0kts
05-Aug-22 13:36 34.059463 -117.621456 359 952ft 0kts
05-Aug-22 13:37 34.059463 -117.621456 359 952ft 0kts
05-Aug-22 13:38 34.059463 -117.621456 359 952ft 0kts
05-Aug-22 13:39 34.059463 -117.621456 359 952ft 0kts
05-Aug-22 13:40 34.059463 -117.621456 359 952ft 0kts
05-Aug-22 13:41 34.059463 -117.621456 359 952ft 0kts
05-Aug-22 13:42 34.059463 -117.621456 359 952ft 0kts
05-Aug-22 13:43 34.059463 -117.621456 359 952ft 0kts
05-Aug-22 13:44 34.059463 -117.621456 359 952ft 0kts
05-Aug-22 13:45 34.059463 -117.621456 359 952ft 0kts
05-Aug-22 13:46 34.059463 -117.621456 359 952ft 0kts
05-Aug-22 13:47 34.059463 -117.621456 359 952ft 0kts
05-Aug-22 13:48 34.059463 -117.621456 359 952ft 0kts
05-Aug-22 13:49 34.059463 -117.621456 359 952ft 0kts
05-Aug-22 13:50 34.059463 -117.621456 359 952ft 0kts
05-Aug-22 13:51 34.059463 -117.621456 359 952ft 0kts
05-Aug-22 13:52 34.059463 -117.621456 359 952ft 0kts
05-Aug-22 13:53 34.059463 -117.621456 359 952ft 0kts
05-Aug-22 13:54 34.059463 -117.621456 359 952ft 0kts
05-Aug-22 13:55 34.059463 -117.621456 359 952ft 0kts
05-Aug-22 13:56 34.059463 -117.621456 359 952ft 0kts
05-Aug-22 13:57 34.059463 -117.621456 359 952ft 0kts
05-Aug-22 13:58 34.059463 -117.621456 359 952ft 0kts
05-Aug-22 13:59 34.059463 -117.621456 359 952ft 0kts
05-Aug-22 14:00 34.059463 -117.621456 359 952ft 0kts
05-Aug-22 14:01 34.059463 -117.621456 359 952ft 0kts
05-Aug-22 14:02 34.059463 -117.621456 359 952ft 0kts
05-Aug-22 14:03 34.059463 -117.621456 359 952ft 0kts
05-Aug-22 14:04 34.059463 -117.621456 359 952ft 0kts
05-Aug-22 14:05 34.059463 -117.621456 359 952ft 0kts
05-Aug-22 14:06 34.059463 -117.621456 359 952ft 0kts
05-Aug-22 14:07 34.059463 -117.621456 359 952ft 0kts
05-Aug-22 14:08 34.059463 -117.621456 359 952ft 0kts
05-Aug-22 14:09 34.059463 -117.621456 359 952ft 0kts
05-Aug-22 14:10 34.059463 -117.621456 359 952ft 0kts
05-Aug-22 14:11 34.059463 -117.621456 359 952ft 0kts
05-Aug-22 14:12 34.059463 -117.621456 359 952ft 0kts
05-Aug-22 14:13 34.059463 -117.621456 359 952ft 0kts
05-Aug-22 14:14 34.059463 -117.621456 359 952ft 0kts
05-Aug-22 14:15 34.059463 -117.621456 359 952ft 0kts
05-Aug-22 14:16 34.059463 -117.621456 359 952ft 0kts
05-Aug-22 14:17 34.059463 -117.621456 359 952ft 0kts
05-Aug-22 14:18 34.059463 -117.621456 359 952ft 0kts
05-Aug-22 14:19 34.059463 -117.621456 359 952ft 0kts
05-Aug-22 14:20 34.059463 -117.621456 359 952ft 0kts
05-Aug-22 14:21 34.059463 -117.621456 359 952ft 0kts
05-Aug-22 14:22 34.059463 -117.621456 359 952ft 0kts
05-Aug-22 14:23 34.059463 -117.621456 359 952ft 0kts
05-Aug-22 14:24 34.059463 -117.621456 359 952ft 0kts
05-Aug-22 14:25 34.059347 -117.621461 8 952ft 2kts
05-Aug-22 14:26 34.058843 -117.621822 54 952ft 2kts
05-Aug-22 14:27 34.058688 -117.622489 91 952ft 0kts
05-Aug-22 14:28 34.058646 -117.622672 55 952ft 0kts
05-Aug-22 14:29 34.058647 -117.622671 55 952ft 0kts
05-Aug-22 14:30 34.058735 -117.622297 98 952ft 4kts
05-Aug-22 14:31 34.057989 -117.619794 88 952ft 14kts
05-Aug-22 14:32 34.057985 -117.615186 90 952ft 12kts
05-Aug-22 14:33 34.057994 -117.608381 89 952ft 28kts
05-Aug-22 14:34 34.057991 -117.599554 90 952ft 21kts
05-Aug-22 14:35 34.057991 -117.591346 89 952ft 24kts
05-Aug-22 14:36 34.057991 -117.584715 90 952ft 14kts
05-Aug-22 14:37 34.056970 -117.583035 243 952ft 8kts
05-Aug-22 14:38 34.056953 -117.614649 268 1355ft 179kts
05-Aug-22 14:39 34.057048 -117.677914 269 3288ft 199kts
05-Aug-22 14:40 34.066952 -117.748769 287 4272ft 238kts
05-Aug-22 14:41 34.095254 -117.829476 311 5730ft 276kts
05-Aug-22 14:42 34.147369 -117.898934 306 8406ft 285kts
05-Aug-22 14:43 34.195562 -117.975937 304 11191ft 294kts
05-Aug-22 14:44 34.244974 -118.058259 303 13330ft 316kts
05-Aug-22 14:45 34.300382 -118.148216 305 14902ft 353kts
05-Aug-22 14:46 34.362956 -118.246743 305 16469ft 384kts
05-Aug-22 14:47 34.430612 -118.353039 305 18154ft 407kts
05-Aug-22 14:48 34.500776 -118.463317 305 20091ft 419kts
05-Aug-22 14:49 34.572960 -118.576862 306 21938ft 432kts
05-Aug-22 14:50 34.646889 -118.693787 305 23932ft 442kts
05-Aug-22 14:51 34.721992 -118.814819 305 25811ft 457kts
05-Aug-22 14:52 34.804748 -118.935007 321 27643ft 474kts
05-Aug-22 14:53 34.917479 -119.020471 330 29273ft 487kts
05-Aug-22 14:54 35.036220 -119.104631 329 30571ft 499kts
05-Aug-22 14:55 35.156758 -119.190805 329 31588ft 507kts
05-Aug-22 14:56 35.279485 -119.278773 329 32454ft 514kts
05-Aug-22 14:57 35.403088 -119.367493 329 33244ft 520kts
05-Aug-22 14:58 35.528427 -119.458086 327 33908ft 525kts
05-Aug-22 14:59 35.645360 -119.566534 319 33988ft 532kts
05-Aug-22 15:00 35.759429 -119.682664 319 34023ft 530kts
05-Aug-22 15:01 35.871965 -119.799059 318 33967ft 531kts
05-Aug-22 15:02 35.980528 -119.921611 315 33965ft 530kts
05-Aug-22 15:03 36.086462 -120.047567 315 33967ft 530kts
05-Aug-22 15:04 36.192463 -120.173481 314 33963ft 529kts
05-Aug-22 15:05 36.298756 -120.299973 314 33936ft 529kts
05-Aug-22 15:06 36.404636 -120.426046 314 33933ft 529kts
05-Aug-22 15:07 36.510808 -120.552477 315 33417ft 526kts
05-Aug-22 15:08 36.616721 -120.671002 317 31018ft 503kts
05-Aug-22 15:09 36.719323 -120.785464 316 28496ft 488kts
05-Aug-22 15:10 36.818705 -120.896109 316 25984ft 474kts
05-Aug-22 15:11 36.914257 -121.002163 316 23463ft 443kts
05-Aug-22 15:12 37.002115 -121.099764 317 20944ft 403kts
05-Aug-22 15:13 37.081765 -121.188348 317 18437ft 371kts
05-Aug-22 15:14 37.157563 -121.273930 316 16737ft 367kts
05-Aug-22 15:15 37.230997 -121.358283 316 15002ft 348kts
05-Aug-22 15:16 37.296975 -121.434242 316 12632ft 299kts
05-Aug-22 15:18 37.355743 -121.502001 316 10212ft 284kts
05-Aug-22 15:19 37.413047 -121.566911 317 8411ft 277kts
05-Aug-22 15:20 37.462673 -121.639000 306 6664ft 267kts
05-Aug-22 15:21 37.506346 -121.713245 304 6243ft 264kts
05-Aug-22 15:22 37.531767 -121.798233 281 5845ft 260kts
05-Aug-22 15:23 37.545701 -121.885758 279 4605ft 249kts
05-Aug-22 15:24 37.560752 -121.969945 287 4077ft 247kts
05-Aug-22 15:25 37.587738 -122.044185 306 3455ft 206kts
05-Aug-22 15:26 37.623875 -122.098190 307 2386ft 199kts
05-Aug-22 15:27 37.657294 -122.148067 308 1354ft 157kts
05-Aug-22 15:28 37.682811 -122.186281 308 632ft 138kts
05-Aug-22 15:29 37.708260 -122.224485 310 15ft 125kts
05-Aug-22 15:30 37.719171 -122.240411 1 14ft 12kts
05-Aug-22 15:31 37.719273 -122.238178 128 14ft 5kts
05-Aug-22 15:32 37.716832 -122.233587 127 14ft 23kts
05-Aug-22 15:33 37.713439 -122.228419 128 14ft 15kts
05-Aug-22 15:34 37.711252 -122.225166 126 14ft 8kts

Navigation Log

Ident Type
Flight plan parsing failed, navigation log unavailable